Free Trial

Meta Platforms (META) Institutional Ownership

$478.22
+12.44 (+2.67%)
(As of 05/24/2024 ET)

Institutional Ownership Changes (13F Filings) for Meta Platforms (NASDAQ:META)

Current
Institutional Ownership
Percentage
79.91%
Number of
Institutional Buyers
(last 12 months)
2560
Total
Institutional Inflows
(last 12 months)
$281.85B
Number of
Institutional Sellers
(last 12 months)
1970
Total
Institutional Outflows
(last 12 months)
$43.38B
Get META Insider Trade Alerts

Want to know when executives and insiders are buying or selling Meta Platforms stock? Sign up for InsiderTrades.com's daily newsletter to get the latest insider transactions delivered to your inbox daily.

Skip Chart & View Institutional Buying and Selling Data

META Institutional Buying and Selling by Quarter

Meta Platforms Major Shareholders & Ownership History

Reporting DateMajor Shareholder NameShares HeldMarket Value% of PortfolioQuarterly Change in SharesOwnership in CompanyDetails
5/24/2024 Cetera Investment Advisers461,607$224.15M0.5%+215.3%0.018%
5/24/2024Invst LLC5,159$2.54M0.3%+6.4%0.000%
5/24/2024PGGM Investments168,780$81.96M1.2%+17.1%0.007%
5/24/2024Northwest Bank & Trust Co8,601$4.18M3.7%-2.3%0.000%
5/23/2024 Dock Street Asset Management Inc.15,957$7.75M1.2%N/A0.001%
5/23/2024 Community Trust & Investment Co.55,574$26.99M1.9%-2.4%0.002%
5/23/2024 Raelipskie Partnership3,104$1.51M0.9%+1.3%0.000%
5/23/2024 FSA Advisors Inc.1,075$522K0.6%+9.6%0.000%
5/23/2024 ARQ Wealth Advisors LLC422$205K0.1%N/A0.000%
5/23/2024 Austin Wealth Management LLC1,535$718K0.2%+15.0%0.000%
5/22/2024 Burney Co.68,805$33.41M1.3%+8.4%0.003%
5/22/2024 Cedar Point Capital Partners LLC681$331K0.3%+11.6%0.000%
5/22/2024 First City Capital Management Inc.1,499$728K0.4%+1.7%0.000%
5/22/2024 Second Line Capital LLC9,021$4.38M1.4%+3.2%0.000%
5/21/2024 Atria Investments Inc123,429$59.93M0.8%-6.5%0.005%
5/21/2024Sanibel Captiva Trust Company Inc.20,169$9.79M0.3%+6.7%0.001%
5/21/2024 LRI Investments LLC1,308$635K0.1%N/A0.000%
5/21/2024 Arrow Financial Corp13,416$6.52M0.6%+4.7%0.001%
5/20/2024 Virtu Financial LLC16,340$7.93M0.6%-60.3%0.001%
5/20/2024Strategic Wealth Partners Ltd.2,876$1.40M0.2%+3.8%0.000%
5/20/2024 Pacific Center for Financial Services882$428K0.1%+8.1%0.000%
5/20/2024 Highlander Capital Management LLC2,710$1.32M0.5%-24.1%0.000%
5/20/2024 Cim LLC48,632$23.62M3.6%-2.2%0.002%
5/20/2024 Bluefin Capital Management LLC1,900$923K0.1%-80.2%0.000%
5/17/2024 Wahed Invest LLC43,822$21.28M4.9%+16.2%0.002%
5/17/2024 Rokos Capital Management LLP377,551$183.41M0.9%N/A0.015%
5/17/2024 CCM Investment Advisers LLC45,736$22.21M2.7%+0.4%0.002%
5/17/2024 Vima LLC331$161K0.0%-50.0%0.000%
5/17/2024 Advisory Resource Group4,100$1.99M0.5%-20.5%0.000%
5/17/2024 Kozak & Associates Inc.1,915$906K0.2%-10.4%0.000%
5/17/2024 Untitled Investments LP34,158$16.59M3.1%+45.6%0.001%
5/17/2024 Lummis Asset Management LP57$28K0.0%-81.4%0.000%
5/17/2024 Montchanin Asset Management LLC1,025$498K0.5%N/A0.000%
5/17/2024 New Covenant Trust Company N.A.1,741$845K0.8%N/A0.000%
5/17/2024 Plato Investment Management Ltd48,576$23.59M2.4%+1,235.6%0.002%
5/17/2024 XML Financial LLC1,481$719K0.1%-11.7%0.000%
5/17/2024 Western Pacific Wealth Management LP4,153$2.02M1.5%+11.7%0.000%
5/17/2024 iA Global Asset Management Inc.299,600$145.48M1.7%+2.1%0.012%
5/17/2024 WealthPlan Investment Management LLC21,274$10.33M1.6%-4.9%0.001%
5/17/2024 Wedgewood Partners Inc.85,922$41.38M9.1%-15.9%0.003%
The #1 Investment of the Decade… (Ad)

Sam Altman, the CEO of OpenAI, has invested $375 million into a breakthrough technology, that legendary financial analyst Porter Stansberry believes… …could be the number-one investment of the decade.

To get all the details of this controversial tech – click here now.
5/17/2024 Brown Shipley& Co Ltd5,515$2.71M0.9%-5.3%0.000%
5/17/2024 Vista Investment Partners LLC751$365K0.1%+13.1%0.000%
5/17/2024 LBP AM SA127,507$61.92M2.5%-19.0%0.005%
5/17/2024 First Western Trust Bank1,470$714K0.0%-19.2%0.000%
5/17/2024 Jaffetilchin Investment Partners LLC30,350$14.74M1.3%-1.0%0.001%
5/17/2024 Beacon Capital Management LLC2,053$997K0.2%+13.4%0.000%
5/17/2024 Semmax Financial Advisors Inc.8,860$4.15M1.4%-10.0%0.000%
5/17/2024 Pineridge Advisors LLC96$47K0.0%-82.2%0.000%
5/17/2024 Hancock Whitney Corp99,043$48.09M1.7%+5.3%0.004%
5/17/2024 SkyView Investment Advisors LLC11,022$5.35M1.0%+29.0%0.000%
5/17/2024 Empirical Capital Management LLC19,200$9.32M7.6%-35.5%0.001%
5/17/2024 Coppell Advisory Solutions Corp.26,965$13.09M2.5%N/A0.001%
5/17/2024 Castleark Management LLC169,534$82.32M3.4%-8.3%0.007%
5/17/2024 Clear Point Advisors Inc.1,036$503K0.4%+7.8%0.000%
5/17/2024 DCM Advisors LLC28,558$13.87M5.7%-18.5%0.001%
5/17/2024 Creekmur Asset Management LLC1,026$498K0.2%+59.6%0.000%
5/17/2024 Wiser Advisor Group LLC3,066$1.49M2.3%+2.9%0.000%
5/17/2024 Motley Fool Asset Management LLC79,836$38.77M2.5%+7.5%0.003%
5/16/2024 Redwood Investment Management LLC3,766$1.83M0.2%N/A0.000%
5/16/2024 California State Teachers Retirement System3,593,972$1.75B2.2%+0.5%0.142%
5/16/2024 Global Financial Private Client LLC3,413$1.68M0.7%+7.0%0.000%
5/16/2024 Slagle Financial LLC624$303K0.2%-68.9%0.000%
5/16/2024 Meiji Yasuda Life Insurance Co65,474$31.79M0.7%+113.9%0.003%
5/16/2024 B. Riley Wealth Advisors Inc.95,882$46.56M1.1%+7.0%0.004%
5/16/2024 Ancora Advisors LLC62,854$30.52M0.7%-42.2%0.002%
5/16/2024 Virtus Investment Advisers Inc.1,238$601K0.4%+58.1%0.000%
5/16/2024 Sweeney & Michel LLC1,586$748K0.3%N/A0.000%
5/16/2024 Oxford Wealth Group LLC7,962$3.87M3.5%N/A0.000%
5/16/2024 Whalerock Point Partners LLC12,044$5.85M1.6%+2.0%0.000%
5/16/2024 Icon Wealth Advisors LLC6,019$2.92M0.3%+12.4%0.000%
5/16/2024 In Depth Partners LLC28,841$14.01M11.0%+2.8%0.001%
5/16/2024 Industrial Alliance Investment Management Inc.5,873$2.85M1.2%+8.5%0.000%
5/16/2024 Interval Partners LP38,199$18.55M0.5%-79.3%0.002%
5/16/2024 Ionic Capital Management LLC1,516$736K0.2%-66.2%0.000%
5/16/2024 Jacobs Levy Equity Management Inc.330,822$160.64M0.7%+8.8%0.013%
5/16/2024 Janus Henderson Group PLC10,928,772$5.31B2.9%-0.3%0.431%
5/16/2024 Jericho Capital Asset Management L.P.462,858$224.76M6.0%-38.2%0.018%
5/16/2024 Kennedy Capital Management LLC33,350$16.19M0.3%+137.8%0.001%
5/16/2024 Kensico Capital Management Corp199,000$96.63M3.2%-1.3%0.008%
5/16/2024 Kingdon Capital Management L.L.C.40,000$19.42M2.1%-27.3%0.002%
5/16/2024 Kamunting Street Capital Management L.P.10,000$4.86M4.7%N/A0.000%
5/16/2024 Kinetic Partners Management LP105,000$50.99M3.6%-10.0%0.004%
5/16/2024 Kraft Davis & Associates LLC1,412$661K0.2%-21.5%0.000%
5/16/2024 Bridgeway Capital Management LLC61,166$29.70M0.6%-1.6%0.002%
5/16/2024Benchmark Investment Advisors LLC5,815$2.82M2.2%-59.3%0.000%
5/16/2024 Waverly Advisors LLC12,663$6.15M0.1%+70.4%0.000%
5/16/2024 Silvercrest Asset Management Group LLC150,482$73.07M0.5%+3.6%0.006%
5/16/2024 Captrust Financial Advisors599,481$291.10M1.0%+26.0%0.024%
5/16/2024 Zurich Insurance Group Ltd FI765,146$371.54M3.4%-3.9%0.030%
5/16/2024 Ashford Capital Management Inc.8,065$3.92M0.5%N/A0.000%
The #1 Investment of the Decade… (Ad)

Sam Altman, the CEO of OpenAI, has invested $375 million into a breakthrough technology, that legendary financial analyst Porter Stansberry believes… …could be the number-one investment of the decade.

To get all the details of this controversial tech – click here now.
5/16/2024 Caxton Associates LP91,403$44.38M2.5%-33.3%0.004%
5/16/2024 Waterford Advisors LLC956$464K0.2%+24.8%0.000%
5/15/2024 Ascent Group LLC27,652$13.43M1.2%+0.6%0.001%
5/15/2024 Whale Rock Capital Management LLC1,289,164$625.99M9.3%-6.0%0.051%
5/15/2024 Earnest Partners LLC1,021$496K0.0%-9.1%0.000%
5/15/2024 SVB Wealth LLC54,590$26.51M0.6%-20.7%0.002%
5/15/2024 Wick Capital Partners LLC548$266K0.3%N/A0.000%
5/15/2024 Third Point LLC1,236,000$600.18M7.7%+6.6%0.049%
5/15/2024 Scge Management L.P.1,423,000$690.98M13.1%-18.1%0.056%
5/15/2024 Untitled Investments LP34,158$16.59M3.8%+45.6%0.001%
(Data available from 1/1/2016 forward)

META Institutional Ownership - Frequently Asked Questions

Who are the largest shareholders of META shares?

During the previous two years, 3,769 institutional investors and hedge funds held shares of Meta Platforms. The most heavily invested institutionals were Vanguard Group Inc. ($90.89B), BlackRock Inc. ($44.70B), FMR LLC ($39.27B), State Street Corp ($25.41B), Price T Rowe Associates Inc. MD ($20.94B), Capital World Investors ($18.60B), and Capital Research Global Investors ($16.80B).Learn more on META's institutional investors.

What percentage of Meta Platforms stock is owned by institutional investors?

79.91% of Meta Platforms stock is owned by institutional investors. Learn more on META's institutional investor holdings.

Which institutional investors have been buying Meta Platforms stock?

Of the 3,502 institutional investors that purchased Meta Platforms stock in the last 24 months, the following investors and hedge funds have bought the highest volume of shares: Bank Julius Baer & Co. Ltd Zurich ($777.94M), Geode Capital Management LLC ($45.27M), Price T Rowe Associates Inc. MD ($41.80M), Norges Bank ($31.88M), Jennison Associates LLC ($14.31M), Sanders Capital LLC ($14.06M), and Charles Schwab Investment Management Inc. ($13.32M).

How much institutional buying is happening at Meta Platforms?

Institutional investors have bought a total of 1,474,004,033 shares in the last 24 months. This purchase volume represents approximately $351.25B in transactions.

Which Meta Platforms major shareholders have been selling company stock?

Of the 2,286 institutional investors that sold Meta Platforms stock in the last 24 months, the following investors and hedge funds have sold the highest volume of shares: OFI Invest Asset Management ($20.36M), Capital Research Global Investors ($8.00M), Deutsche Bank AG ($7.88M), Capital International Investors ($7.30M), Assenagon Asset Management S.A. ($5.01M), Flossbach Von Storch AG ($4.80M), and Veritas Asset Management LLP ($4.63M).

How much institutional selling is happening at Meta Platforms?

Institutional investors have sold a total of 179,366,342 shares in the last 24 months. This volume of shares sold represents approximately $54.03B in transactions.


This page (NASDAQ:META) was last updated on 5/24/2024 by MarketBeat.com Staff

From Our Partners